x

San Francisco - 18nm West Of San Francisco, Ca (46026) Wave Buoy

12:50pm - Fri 1st Jul 2016 All times are PDT. -7 hours from GMT.

  • Sig Wave height 7.2ft
  • Swell Direction
  • Peak Period 9s
  • Average Period 7s
  • Wind
    7mph, 9mph gusts
  • Sea Temp 52°f
  • Air Temp 51°f
  • Sea Pressure 1013.8mb
  • San Francisco - 18nm West Of San Francisco, Ca
  • San Francisco - 18nm West Of San Francisco, Ca

More Historic Weather Station data

Upgrade to MSW Pro to gain access to the past 30 days of data for over 8000 Wavebouys and Weather Stations around the globe.

Join Pro

Comparision Forecast

View Surf forecast
   
Fri 07/01 12:50pm 7ft 9s 7s 7 9 mph 1013.8mb 52f 51f
11:50am 8ft 10s 8s 9
mph
1013.5mb 52f 51f
10:50am 7.5ft 10s 7s 7 9 mph 1013.1mb 51f 50f
9:50am 7.5ft 9s 7s 7 9 mph 1012.7mb 51f 50f
8:50am 8ft 8s 7s 7 11 mph 1012.2mb 51f 50f
7:50am 8.5ft 10s 7s 7 9 mph 1011.7mb 51f 50f
6:50am 8ft 8s 7s 9 13 mph 1011.2mb 51f 51f
5:50am 8.5ft 9s 7s 11 16 mph 1010.7mb 51f 51f
4:50am 9ft 8s 7s 16 18 mph 1010.3mb 51f 51f
3:50am 9ft 10s 7s 18 22 mph 1009.8mb 51f 52f
2:50am 10ft 10s 7s 18 22 mph 1010mb 51f 52f
1:50am 8.5ft 8s 7s 16 22 mph 1010.1mb 52f 52f
12:50am 9ft 9s 7s 18 22 mph 1010.3mb 52f 53f
Thu 06/30 11:50pm 9ft 8s 7s 13 18 mph 1010.7mb 52f 53f
10:50pm 8ft 7s 7s 13 18 mph 1010.7mb 52f 53f
9:50pm 8ft 11s 7s 16 20 mph 1010.2mb 52f 53f
8:50pm 7.5ft 10s 7s 18 22 mph 1009.8mb 52f 53f
7:50pm 7ft 8s 7s 16 20 mph 1010.2mb 52f 53f
6:50pm 7ft 8s 7s 18 20 mph 1010.3mb 52f 54f
4:50pm 7ft 8s 7s 13 18 mph 1011.5mb 52f 53f
3:50pm 7ft 8s 7s 11 13 mph 1012.2mb 52f 52f
2:50pm 7ft 9s 7s 9 11 mph 1012.7mb 52f 51f
1:50pm 6ft 10s 7s 2 4 mph 1012.7mb 53f 52f
12:50pm 6ft 10s 7s 2 4 mph 1012.8mb 52f 51f
11:50am 7ft 10s 7s 2 4 mph 1013.1mb 51f 50f
10:50am 7ft 9s 7s 4 7 mph 1013.1mb 51f 49f
9:50am 6ft 10s 7s 4
mph
1013mb 51f 49f
8:50am 6.5ft 8s 7s 9 11 mph 1013.1mb 51f 49f
7:50am 7ft 9s 7s 13 18 mph 1012.6mb 51f 49f
6:50am 7.5ft 8s 7s 16 18 mph 1012.6mb 51f 49f
5:50am 8ft 9s 7s 16 20 mph 1012.4mb 51f 50f
4:50am 8ft 7s 6s 20 25 mph 1012.1mb 51f 50f
3:50am 7ft 9s 6s 18 22 mph 1012.2mb 51f 51f
2:50am 8ft 9s 7s 16 18 mph 1012.6mb 51f 52f
1:50am 8ft 8s 7s 13 18 mph 1012.8mb 51f 52f
12:50am 8.5ft 9s 7s 18 20 mph 1013mb 51f 52f
Wed 06/29 11:50pm 8.5ft 9s 7s 16 18 mph 1013.5mb 51f 52f
10:50pm 8.5ft 9s 7s 16 18 mph 1013.4mb 51f 52f
9:50pm 8ft 8s 7s 13 18 mph 1013.6mb 51f 53f
8:50pm 7.5ft 8s 7s 11 13 mph 1014.2mb 51f 53f
7:50pm 8ft 8s 6s 20 22 mph 1013.6mb 51f 53f
6:50pm 7ft 9s 6s 18 20 mph 1014mb 51f 53f
5:50pm 8ft 9s 6s 20 25 mph 1014.4mb 51f 52f
4:50pm 8ft 10s 7s 22 27 mph 1014.8mb 51f 52f
3:50pm 7ft 10s 6s 20 25 mph 1015.4mb 51f 52f
2:50pm 7.5ft 9s 7s 18 22 mph 1015.8mb 51f 52f
1:50pm 8ft 9s 7s 20 25 mph 1016mb 51f 52f
12:50pm 7ft 8s 6s 18 25 mph 1016.5mb 51f 51f
11:50am 8ft 9s 7s 20 25 mph 1016.4mb 51f 51f
10:50am 8ft 9s 6s 20 25 mph 1016.2mb 51f 51f
9:50am 8ft 9s 7s 20 25 mph 1016mb 51f 51f
8:50am 8ft 9s 7s 20 25 mph 1015.8mb 51f 51f
7:50am 9ft 9s 7s 20 25 mph 1015.5mb 51f 50f
6:50am 9ft 9s 7s 20 27 mph 1015.1mb 51f 50f
5:50am 8.5ft 8s 7s 27 31 mph 1014mb 51f 50f
4:50am 9ft 8s 6s 25 29 mph 1013.7mb 51f 51f
3:50am 8ft 8s 6s 22 27 mph 1013.9mb 51f 51f
2:50am 8ft 7s 6s 20 25 mph 1014.1mb 51f 51f
12:50am 7ft 9s 6s 18 25 mph 1014.6mb 51f 52f
Tue 06/28 11:50pm 7ft 8s 6s 16 20 mph 1014.7mb 51f 52f
10:50pm 7.5ft 8s 6s 20 22 mph 1014.6mb 51f 52f
9:50pm 8ft 8s 6s 16 20 mph 1014.7mb 52f 53f
8:50pm 8ft 9s 7s 18 22 mph 1014.5mb 52f 53f
7:50pm 8ft 8s 6s 18 22 mph 1014.1mb 52f 52f
6:50pm 7ft 8s 6s 22 27 mph 1014mb 52f 52f
5:50pm 7ft 8s 6s 22 25 mph 1014.5mb 52f 52f
4:50pm 6.5ft 8s 6s 25 29 mph 1015mb 52f 51f
3:50pm 7.5ft 9s 6s 22 27 mph 1015.9mb 52f 52f
2:50pm 7ft 8s 6s 22 27 mph 1016.2mb 51f 51f
1:50pm 7ft 9s 6s 22 25 mph 1016.6mb 51f 51f
12:50pm 7ft 8s 6s 22 27 mph 1016.9mb 51f 51f
11:50am 7ft 8s 6s 20 27 mph 1017.1mb 51f 51f
10:50am 7.5ft 8s 6s 22 25 mph 1016.9mb 51f 50f
9:50am 7.5ft 8s 6s 22 27 mph 1016.7mb 51f 50f
8:50am 7.5ft 8s 6s 22 27 mph 1016.4mb 51f 50f
7:50am 8ft 8s 6s 20 25 mph 1016.3mb 51f 50f
6:50am 7ft 9s 6s 20 27 mph 1015.8mb 51f 50f
5:50am 7.5ft 8s 6s 20 25 mph 1016mb 52f 50f
4:50am 7ft 8s 6s 25 29 mph 1014.6mb 52f 50f
3:50am 7.5ft 8s 6s 25 31 mph 1014.8mb 52f 51f
2:50am 7ft 8s 6s 25 31 mph 1014.8mb 52f 51f
1:50am 7.5ft 8s 6s 25 31 mph 1014.9mb 52f 51f
12:50am 7ft 8s 6s 25 29 mph 1014.9mb 52f 52f
Mon 06/27 11:50pm 8ft 8s 6s 22 27 mph 1015.1mb 52f 53f
10:50pm 8ft 8s 6s 22 27 mph 1015.2mb 53f 53f
9:50pm 7ft 8s 6s 25 29 mph 1014.8mb 53f 53f